sensor_id;sensor_type;location;lat;lon;timestamp;pressure;altitude;pressure_sealevel;temperature;humidity
29903;BME280;30288;50.514;9.678;2024-02-23T00:00:23;96175.91;;;8.13;100.00
29903;BME280;30288;50.514;9.678;2024-02-23T00:02:29;96211.91;;;8.12;100.00
29903;BME280;30288;50.514;9.678;2024-02-23T00:04:34;96182.19;;;8.06;100.00
29903;BME280;30288;50.514;9.678;2024-02-23T00:06:37;96206.16;;;8.10;100.00
29903;BME280;30288;50.514;9.678;2024-02-23T00:08:43;96230.25;;;7.98;100.00
29903;BME280;30288;50.514;9.678;2024-02-23T00:10:52;96215.47;;;7.93;100.00
29903;BME280;30288;50.514;9.678;2024-02-23T00:12:58;96222.19;;;7.93;100.00
29903;BME280;30288;50.514;9.678;2024-02-23T00:15:04;96206.34;;;7.93;100.00
29903;BME280;30288;50.514;9.678;2024-02-23T00:17:13;96216.53;;;7.89;100.00
29903;BME280;30288;50.514;9.678;2024-02-23T00:19:19;96233.72;;;7.81;100.00
29903;BME280;30288;50.514;9.678;2024-02-23T00:21:26;96243.91;;;7.78;100.00
29903;BME280;30288;50.514;9.678;2024-02-23T00:23:32;96249.44;;;7.69;100.00
29903;BME280;30288;50.514;9.678;2024-02-23T00:25:38;96251.97;;;7.69;100.00
29903;BME280;30288;50.514;9.678;2024-02-23T00:27:46;96269.13;;;7.75;100.00
29903;BME280;30288;50.514;9.678;2024-02-23T00:29:54;96271.84;;;7.86;100.00
29903;BME280;30288;50.514;9.678;2024-02-23T00:31:59;96272.09;;;7.82;100.00
29903;BME280;30288;50.514;9.678;2024-02-23T00:34:05;96272.56;;;7.74;100.00
29903;BME280;30288;50.514;9.678;2024-02-23T00:36:13;96276.75;;;7.74;100.00
29903;BME280;30288;50.514;9.678;2024-02-23T00:38:19;96285.47;;;7.67;100.00
29903;BME280;30288;50.514;9.678;2024-02-23T00:40:24;96273.84;;;7.66;100.00
29903;BME280;30288;50.514;9.678;2024-02-23T00:42:30;96282.72;;;7.71;100.00
29903;BME280;30288;50.514;9.678;2024-02-23T00:44:38;96293.56;;;7.72;100.00
29903;BME280;30288;50.514;9.678;2024-02-23T00:46:44;96312.78;;;7.71;100.00
29903;BME280;30288;50.514;9.678;2024-02-23T00:48:52;96307.84;;;7.70;100.00
29903;BME280;30288;50.514;9.678;2024-02-23T00:50:57;96314.91;;;7.63;100.00
29903;BME280;30288;50.514;9.678;2024-02-23T00:53:05;96330.13;;;7.60;100.00
29903;BME280;30288;50.514;9.678;2024-02-23T00:55:11;96334.94;;;7.63;100.00
29903;BME280;30288;50.514;9.678;2024-02-23T00:57:18;96331.81;;;7.60;100.00
29903;BME280;30288;50.514;9.678;2024-02-23T00:59:29;96353.53;;;7.59;100.00
29903;BME280;30288;50.514;9.678;2024-02-23T01:01:37;96358.44;;;7.61;100.00
29903;BME280;30288;50.514;9.678;2024-02-23T01:03:43;96370.34;;;7.57;100.00
29903;BME280;30288;50.514;9.678;2024-02-23T01:05:46;96371.22;;;7.56;100.00
29903;BME280;30288;50.514;9.678;2024-02-23T01:07:52;96367.13;;;7.55;100.00
29903;BME280;30288;50.514;9.678;2024-02-23T01:09:55;96361.22;;;7.56;100.00
29903;BME280;30288;50.514;9.678;2024-02-23T01:12:00;96364.63;;;7.55;100.00
29903;BME280;30288;50.514;9.678;2024-02-23T01:14:06;96368.91;;;7.53;100.00
29903;BME280;30288;50.514;9.678;2024-02-23T01:16:12;96367.13;;;7.55;100.00
29903;BME280;30288;50.514;9.678;2024-02-23T01:18:20;96382.31;;;7.52;100.00
29903;BME280;30288;50.514;9.678;2024-02-23T01:20:25;96372.28;;;7.52;100.00
29903;BME280;30288;50.514;9.678;2024-02-23T01:22:31;96391.44;;;7.53;100.00
29903;BME280;30288;50.514;9.678;2024-02-23T01:24:38;96398.22;;;7.51;100.00
29903;BME280;30288;50.514;9.678;2024-02-23T01:26:44;96394.19;;;7.48;100.00
29903;BME280;30288;50.514;9.678;2024-02-23T01:28:49;96409.38;;;7.45;100.00
29903;BME280;30288;50.514;9.678;2024-02-23T01:30:54;96409.63;;;7.41;100.00
29903;BME280;30288;50.514;9.678;2024-02-23T01:33:00;96410.09;;;7.32;100.00
29903;BME280;30288;50.514;9.678;2024-02-23T01:35:09;96414.38;;;7.30;100.00
29903;BME280;30288;50.514;9.678;2024-02-23T01:37:15;96407.03;;;7.27;100.00
29903;BME280;30288;50.514;9.678;2024-02-23T01:39:18;96402.03;;;7.27;100.00
29903;BME280;30288;50.514;9.678;2024-02-23T01:41:24;96405.06;;;7.32;100.00
29903;BME280;30288;50.514;9.678;2024-02-23T01:43:29;96421.97;;;7.28;100.00
29903;BME280;30288;50.514;9.678;2024-02-23T01:45:33;96418.66;;;7.28;100.00
29903;BME280;30288;50.514;9.678;2024-02-23T01:47:39;96420.56;;;7.23;100.00
29903;BME280;30288;50.514;9.678;2024-02-23T01:49:46;96419.28;;;7.16;100.00
29903;BME280;30288;50.514;9.678;2024-02-23T01:51:52;96421.44;;;7.06;100.00
29903;BME280;30288;50.514;9.678;2024-02-23T01:53:57;96419.91;;;7.03;100.00
29903;BME280;30288;50.514;9.678;2024-02-23T01:56:04;96441.72;;;7.01;100.00
29903;BME280;30288;50.514;9.678;2024-02-23T01:58:14;96423.63;;;6.96;100.00
29903;BME280;30288;50.514;9.678;2024-02-23T02:00:21;96443.50;;;6.82;100.00
29903;BME280;30288;50.514;9.678;2024-02-23T02:02:29;96440.22;;;6.65;100.00
29903;BME280;30288;50.514;9.678;2024-02-23T02:04:32;96450.75;;;6.54;100.00
29903;BME280;30288;50.514;9.678;2024-02-23T02:06:38;96457.69;;;6.13;100.00
29903;BME280;30288;50.514;9.678;2024-02-23T02:08:46;96471.19;;;5.92;100.00
29903;BME280;30288;50.514;9.678;2024-02-23T02:10:52;96484.34;;;5.77;100.00
29903;BME280;30288;50.514;9.678;2024-02-23T02:13:02;96483.47;;;5.59;100.00
29903;BME280;30288;50.514;9.678;2024-02-23T02:15:07;96494.28;;;5.41;100.00
29903;BME280;30288;50.514;9.678;2024-02-23T02:17:13;96495.59;;;5.29;100.00
29903;BME280;30288;50.514;9.678;2024-02-23T02:19:18;96491.44;;;5.29;100.00
29903;BME280;30288;50.514;9.678;2024-02-23T02:21:26;96491.88;;;5.19;100.00
29903;BME280;30288;50.514;9.678;2024-02-23T02:23:32;96502.88;;;5.15;100.00
29903;BME280;30288;50.514;9.678;2024-02-23T02:25:38;96495.81;;;5.04;100.00
29903;BME280;30288;50.514;9.678;2024-02-23T02:27:43;96500.72;;;5.07;100.00
29903;BME280;30288;50.514;9.678;2024-02-23T02:29:50;96498.69;;;5.15;100.00
29903;BME280;30288;50.514;9.678;2024-02-23T02:31:57;96508.66;;;5.15;100.00
29903;BME280;30288;50.514;9.678;2024-02-23T02:34:03;96513.00;;;5.12;100.00
29903;BME280;30288;50.514;9.678;2024-02-23T02:36:09;96508.34;;;5.23;100.00
29903;BME280;30288;50.514;9.678;2024-02-23T02:38:15;96516.13;;;5.36;100.00
29903;BME280;30288;50.514;9.678;2024-02-23T02:40:20;96534.22;;;5.41;100.00
29903;BME280;30288;50.514;9.678;2024-02-23T02:42:28;96536.72;;;5.41;100.00
29903;BME280;30288;50.514;9.678;2024-02-23T02:44:34;96523.00;;;5.31;100.00
29903;BME280;30288;50.514;9.678;2024-02-23T02:46:40;96532.97;;;5.31;100.00
29903;BME280;30288;50.514;9.678;2024-02-23T02:48:45;96537.59;;;5.19;100.00
29903;BME280;30288;50.514;9.678;2024-02-23T02:50:51;96548.19;;;5.24;100.00
29903;BME280;30288;50.514;9.678;2024-02-23T02:52:58;96548.19;;;5.24;100.00
29903;BME280;30288;50.514;9.678;2024-02-23T02:55:04;96546.47;;;5.26;100.00
29903;BME280;30288;50.514;9.678;2024-02-23T02:57:10;96550.69;;;5.24;100.00
29903;BME280;30288;50.514;9.678;2024-02-23T02:59:18;96555.38;;;5.32;100.00
29903;BME280;30288;50.514;9.678;2024-02-23T03:01:22;96554.44;;;5.35;100.00
29903;BME280;30288;50.514;9.678;2024-02-23T03:03:27;96558.34;;;5.40;100.00
29903;BME280;30288;50.514;9.678;2024-02-23T03:05:38;96563.34;;;5.40;100.00
29903;BME280;30288;50.514;9.678;2024-02-23T03:07:44;96572.38;;;5.43;100.00
29903;BME280;30288;50.514;9.678;2024-02-23T03:09:49;96565.75;;;5.42;100.00
29903;BME280;30288;50.514;9.678;2024-02-23T03:11:58;96568.03;;;5.27;100.00
29903;BME280;30288;50.514;9.678;2024-02-23T03:14:05;96563.03;;;5.27;100.00
29903;BME280;30288;50.514;9.678;2024-02-23T03:16:18;96562.69;;;5.37;100.00
29903;BME280;30288;50.514;9.678;2024-02-23T03:18:26;96574.66;;;5.28;100.00
29903;BME280;30288;50.514;9.678;2024-02-23T03:20:32;96576.13;;;5.33;100.00
29903;BME280;30288;50.514;9.678;2024-02-23T03:22:38;96576.28;;;5.29;100.00
29903;BME280;30288;50.514;9.678;2024-02-23T03:24:45;96583.28;;;5.21;100.00
29903;BME280;30288;50.514;9.678;2024-02-23T03:26:51;96592.25;;;5.25;100.00
29903;BME280;30288;50.514;9.678;2024-02-23T03:29:00;96585.81;;;5.20;100.00
29903;BME280;30288;50.514;9.678;2024-02-23T03:31:06;96588.50;;;5.15;100.00
29903;BME280;30288;50.514;9.678;2024-02-23T03:33:14;96585.16;;;5.16;100.00
29903;BME280;30288;50.514;9.678;2024-02-23T03:35:20;96590.50;;;5.07;100.00
29903;BME280;30288;50.514;9.678;2024-02-23T03:37:28;96605.59;;;5.04;100.00
29903;BME280;30288;50.514;9.678;2024-02-23T03:39:34;96601.97;;;5.11;100.00
29903;BME280;30288;50.514;9.678;2024-02-23T03:41:40;96602.34;;;5.02;100.00
29903;BME280;30288;50.514;9.678;2024-02-23T03:43:45;96594.94;;;5.01;100.00
29903;BME280;30288;50.514;9.678;2024-02-23T03:45:51;96609.84;;;5.02;100.00
29903;BME280;30288;50.514;9.678;2024-02-23T03:47:59;96610.66;;;5.03;100.00
29903;BME280;30288;50.514;9.678;2024-02-23T03:50:09;96617.31;;;5.02;100.00
29903;BME280;30288;50.514;9.678;2024-02-23T03:52:14;96622.50;;;5.18;100.00
29903;BME280;30288;50.514;9.678;2024-02-23T03:54:20;96622.19;;;5.25;100.00
29903;BME280;30288;50.514;9.678;2024-02-23T03:56:25;96614.72;;;5.25;100.00
29903;BME280;30288;50.514;9.678;2024-02-23T03:58:33;96623.81;;;5.26;100.00
29903;BME280;30288;50.514;9.678;2024-02-23T04:00:36;96617.94;;;5.27;100.00
29903;BME280;30288;50.514;9.678;2024-02-23T04:02:42;96617.06;;;5.28;100.00
29903;BME280;30288;50.514;9.678;2024-02-23T04:04:45;96612.16;;;5.27;100.00
29903;BME280;30288;50.514;9.678;2024-02-23T04:06:53;96611.44;;;5.23;100.00
29903;BME280;30288;50.514;9.678;2024-02-23T04:09:01;96618.69;;;5.09;100.00
29903;BME280;30288;50.514;9.678;2024-02-23T04:11:07;96619.41;;;4.91;100.00
29903;BME280;30288;50.514;9.678;2024-02-23T04:13:14;96619.78;;;4.82;100.00
29903;BME280;30288;50.514;9.678;2024-02-23T04:15:20;96627.25;;;4.82;100.00
29903;BME280;30288;50.514;9.678;2024-02-23T04:17:26;96628.13;;;4.81;100.00
29903;BME280;30288;50.514;9.678;2024-02-23T04:19:32;96622.91;;;4.87;100.00
29903;BME280;30288;50.514;9.678;2024-02-23T04:21:38;96638.34;;;4.75;100.00
29903;BME280;30288;50.514;9.678;2024-02-23T04:23:46;96632.75;;;4.90;100.00
29903;BME280;30288;50.514;9.678;2024-02-23T04:25:52;96621.28;;;4.86;100.00
29903;BME280;30288;50.514;9.678;2024-02-23T04:27:58;96624.38;;;4.71;100.00
29903;BME280;30288;50.514;9.678;2024-02-23T04:30:07;96627.22;;;4.62;100.00
29903;BME280;30288;50.514;9.678;2024-02-23T04:32:14;96627.56;;;4.53;100.00
29903;BME280;30288;50.514;9.678;2024-02-23T04:34:21;96635.69;;;4.58;100.00
29903;BME280;30288;50.514;9.678;2024-02-23T04:36:26;96636.88;;;4.48;100.00
29903;BME280;30288;50.514;9.678;2024-02-23T04:38:35;96639.94;;;4.56;100.00
29903;BME280;30288;50.514;9.678;2024-02-23T04:40:44;96641.13;;;4.46;100.00
29903;BME280;30288;50.514;9.678;2024-02-23T04:42:50;96645.88;;;4.52;100.00
29903;BME280;30288;50.514;9.678;2024-02-23T04:44:55;96653.78;;;4.41;100.00
29903;BME280;30288;50.514;9.678;2024-02-23T04:47:01;96655.31;;;4.44;100.00
29903;BME280;30288;50.514;9.678;2024-02-23T04:49:04;96653.69;;;4.43;100.00
29903;BME280;30288;50.514;9.678;2024-02-23T04:51:09;96655.97;;;4.49;100.00
29903;BME280;30288;50.514;9.678;2024-02-23T04:53:16;96658.81;;;4.39;100.00
29903;BME280;30288;50.514;9.678;2024-02-23T04:55:22;96658.19;;;4.33;100.00
29903;BME280;30288;50.514;9.678;2024-02-23T04:57:36;96668.34;;;4.28;100.00
29903;BME280;30288;50.514;9.678;2024-02-23T04:59:42;96659.88;;;4.32;100.00
29903;BME280;30288;50.514;9.678;2024-02-23T05:01:48;96667.94;;;4.39;100.00
29903;BME280;30288;50.514;9.678;2024-02-23T05:03:54;96671.38;;;4.36;100.00
29903;BME280;30288;50.514;9.678;2024-02-23T05:05:59;96666.41;;;4.36;100.00
29903;BME280;30288;50.514;9.678;2024-02-23T05:08:05;96676.25;;;4.39;100.00
29903;BME280;30288;50.514;9.678;2024-02-23T05:10:12;96671.94;;;4.43;100.00
29903;BME280;30288;50.514;9.678;2024-02-23T05:12:19;96665.59;;;4.36;100.00
29903;BME280;30288;50.514;9.678;2024-02-23T05:14:27;96663.00;;;4.37;100.00
29903;BME280;30288;50.514;9.678;2024-02-23T05:16:33;96658.19;;;4.33;100.00
29903;BME280;30288;50.514;9.678;2024-02-23T05:18:40;96658.03;;;4.37;100.00
29903;BME280;30288;50.514;9.678;2024-02-23T05:20:46;96659.66;;;4.38;100.00
29903;BME280;30288;50.514;9.678;2024-02-23T05:22:55;96671.22;;;4.41;100.00
29903;BME280;30288;50.514;9.678;2024-02-23T05:24:57;96663.00;;;4.37;100.00
29903;BME280;30288;50.514;9.678;2024-02-23T05:27:04;96670.72;;;4.31;100.00
29903;BME280;30288;50.514;9.678;2024-02-23T05:29:09;96670.72;;;4.31;100.00
29903;BME280;30288;50.514;9.678;2024-02-23T05:31:44;96674.81;;;4.32;100.00
29903;BME280;30288;50.514;9.678;2024-02-23T05:33:51;96674.72;;;4.35;100.00
29903;BME280;30288;50.514;9.678;2024-02-23T05:35:57;96667.13;;;4.38;100.00
29903;BME280;30288;50.514;9.678;2024-02-23T05:38:03;96672.97;;;4.37;100.00
29903;BME280;30288;50.514;9.678;2024-02-23T05:40:10;96671.69;;;4.51;100.00
29903;BME280;30288;50.514;9.678;2024-02-23T05:42:16;96668.31;;;4.52;100.00
29903;BME280;30288;50.514;9.678;2024-02-23T05:44:22;96665.94;;;4.49;100.00
29903;BME280;30288;50.514;9.678;2024-02-23T05:46:31;96674.06;;;4.54;100.00
29903;BME280;30288;50.514;9.678;2024-02-23T05:48:38;96664.94;;;4.53;100.00
29903;BME280;30288;50.514;9.678;2024-02-23T05:50:43;96664.59;;;4.62;100.00
29903;BME280;30288;50.514;9.678;2024-02-23T05:52:49;96670.41;;;4.62;100.00
29903;BME280;30288;50.514;9.678;2024-02-23T05:54:56;96665.38;;;4.64;100.00
29903;BME280;30288;50.514;9.678;2024-02-23T05:57:03;96656.56;;;4.55;100.00
29903;BME280;30288;50.514;9.678;2024-02-23T05:59:08;96653.91;;;4.60;100.00
29903;BME280;30288;50.514;9.678;2024-02-23T06:01:14;96650.53;;;4.61;100.00
29903;BME280;30288;50.514;9.678;2024-02-23T06:03:22;96662.75;;;4.67;100.00
29903;BME280;30288;50.514;9.678;2024-02-23T06:05:28;96680.19;;;4.67;100.00
29903;BME280;30288;50.514;9.678;2024-02-23T06:07:34;96691.59;;;4.74;100.00
29903;BME280;30288;50.514;9.678;2024-02-23T06:09:40;96695.16;;;4.67;100.00
29903;BME280;30288;50.514;9.678;2024-02-23T06:11:46;96700.28;;;4.64;100.00
29903;BME280;30288;50.514;9.678;2024-02-23T06:13:51;96706.88;;;4.65;100.00
29903;BME280;30288;50.514;9.678;2024-02-23T06:15:57;96705.31;;;4.62;100.00
29903;BME280;30288;50.514;9.678;2024-02-23T06:17:59;96707.09;;;4.59;100.00
29903;BME280;30288;50.514;9.678;2024-02-23T06:20:10;96712.09;;;4.59;100.00
29903;BME280;30288;50.514;9.678;2024-02-23T06:22:15;96721.47;;;4.52;100.00
29903;BME280;30288;50.514;9.678;2024-02-23T06:24:23;96719.38;;;4.42;100.00
29903;BME280;30288;50.514;9.678;2024-02-23T06:26:28;96724.25;;;4.45;100.00
29903;BME280;30288;50.514;9.678;2024-02-23T06:28:34;96725.78;;;4.47;100.00
29903;BME280;30288;50.514;9.678;2024-02-23T06:30:41;96723.59;;;4.39;100.00
29903;BME280;30288;50.514;9.678;2024-02-23T06:32:46;96734.41;;;4.38;100.00
29903;BME280;30288;50.514;9.678;2024-02-23T06:34:49;96727.38;;;4.50;100.00
29903;BME280;30288;50.514;9.678;2024-02-23T06:37:00;96732.78;;;4.37;100.00
29903;BME280;30288;50.514;9.678;2024-02-23T06:39:05;96736.50;;;4.27;100.00
29903;BME280;30288;50.514;9.678;2024-02-23T06:41:11;96745.53;;;4.30;100.00
29903;BME280;30288;50.514;9.678;2024-02-23T06:43:18;96748.88;;;4.29;100.00
29903;BME280;30288;50.514;9.678;2024-02-23T06:45:24;96753.38;;;4.19;100.00
29903;BME280;30288;50.514;9.678;2024-02-23T06:47:30;96761.94;;;4.12;100.00
29903;BME280;30288;50.514;9.678;2024-02-23T06:49:35;96762.84;;;4.10;100.00
29903;BME280;30288;50.514;9.678;2024-02-23T06:51:41;96776.88;;;4.12;100.00
29903;BME280;30288;50.514;9.678;2024-02-23T06:53:49;96770.16;;;4.14;100.00
29903;BME280;30288;50.514;9.678;2024-02-23T06:55:54;96768.44;;;4.16;100.00
29903;BME280;30288;50.514;9.678;2024-02-23T06:58:02;96779.41;;;4.11;100.00
29903;BME280;30288;50.514;9.678;2024-02-23T07:00:11;96777.06;;;4.06;100.00
29903;BME280;30288;50.514;9.678;2024-02-23T07:02:17;96773.91;;;4.01;100.00
29903;BME280;30288;50.514;9.678;2024-02-23T07:04:22;96775.03;;;3.92;100.00
29903;BME280;30288;50.514;9.678;2024-02-23T07:06:28;96782.66;;;3.88;100.00
29903;BME280;30288;50.514;9.678;2024-02-23T07:08:37;96785.50;;;4.02;100.00
29903;BME280;30288;50.514;9.678;2024-02-23T07:10:45;96783.78;;;4.04;100.00
29903;BME280;30288;50.514;9.678;2024-02-23T07:12:50;96785.41;;;4.05;100.00
29903;BME280;30288;50.514;9.678;2024-02-23T07:14:58;96798.72;;;4.04;100.00
29903;BME280;30288;50.514;9.678;2024-02-23T07:17:04;96801.31;;;4.01;100.00
29903;BME280;30288;50.514;9.678;2024-02-23T07:19:10;96801.97;;;4.06;100.00
29903;BME280;30288;50.514;9.678;2024-02-23T07:21:18;96805.25;;;4.08;100.00
29903;BME280;30288;50.514;9.678;2024-02-23T07:23:25;96804.50;;;4.05;100.00
29903;BME280;30288;50.514;9.678;2024-02-23T07:25:30;96814.47;;;4.05;100.00
29903;BME280;30288;50.514;9.678;2024-02-23T07:27:39;96816.28;;;4.00;100.00
29903;BME280;30288;50.514;9.678;2024-02-23T07:29:44;96813.88;;;3.98;100.00
29903;BME280;30288;50.514;9.678;2024-02-23T07:31:50;96806.84;;;4.09;100.00
29903;BME280;30288;50.514;9.678;2024-02-23T07:33:56;96817.44;;;4.16;100.00
29903;BME280;30288;50.514;9.678;2024-02-23T07:36:01;96818.06;;;4.22;100.00
29903;BME280;30288;50.514;9.678;2024-02-23T07:38:09;96820.78;;;4.39;100.00
29903;BME280;30288;50.514;9.678;2024-02-23T07:40:15;96811.75;;;4.37;100.00
29903;BME280;30288;50.514;9.678;2024-02-23T07:42:23;96812.38;;;4.42;100.00
29903;BME280;30288;50.514;9.678;2024-02-23T07:44:32;96802.19;;;4.48;100.00
29903;BME280;30288;50.514;9.678;2024-02-23T07:46:38;96807.59;;;4.61;100.00
29903;BME280;30288;50.514;9.678;2024-02-23T07:48:47;96803.22;;;4.66;100.00
29903;BME280;30288;50.514;9.678;2024-02-23T07:50:52;96799.06;;;4.66;100.00
29903;BME280;30288;50.514;9.678;2024-02-23T07:52:58;96801.38;;;4.71;100.00
29903;BME280;30288;50.514;9.678;2024-02-23T07:55:01;96802.19;;;4.71;100.00
29903;BME280;30288;50.514;9.678;2024-02-23T07:57:07;96811.47;;;4.68;100.00
29903;BME280;30288;50.514;9.678;2024-02-23T07:59:14;96814.75;;;4.70;100.00
29903;BME280;30288;50.514;9.678;2024-02-23T08:01:23;96823.50;;;4.80;100.00
29903;BME280;30288;50.514;9.678;2024-02-23T08:03:28;96815.09;;;4.82;100.00
29903;BME280;30288;50.514;9.678;2024-02-23T08:05:34;96820.56;;;4.92;100.00
29903;BME280;30288;50.514;9.678;2024-02-23T08:07:44;96815.38;;;4.98;100.00
29903;BME280;30288;50.514;9.678;2024-02-23T08:09:50;96825.88;;;5.06;100.00
29903;BME280;30288;50.514;9.678;2024-02-23T08:11:55;96823.03;;;5.15;100.00
29903;BME280;30288;50.514;9.678;2024-02-23T08:14:02;96828.44;;;5.26;100.00
29903;BME280;30288;50.514;9.678;2024-02-23T08:16:08;96824.84;;;5.34;100.00
29903;BME280;30288;50.514;9.678;2024-02-23T08:18:16;96826.47;;;5.35;100.00
29903;BME280;30288;50.514;9.678;2024-02-23T08:20:26;96826.28;;;5.39;100.00
29903;BME280;30288;50.514;9.678;2024-02-23T08:22:32;96826.75;;;5.49;100.00
29903;BME280;30288;50.514;9.678;2024-02-23T08:24:37;96822.19;;;5.60;100.00
29903;BME280;30288;50.514;9.678;2024-02-23T08:26:43;96827.28;;;5.57;100.00
29903;BME280;30288;50.514;9.678;2024-02-23T08:28:49;96824.78;;;5.57;100.00
29903;BME280;30288;50.514;9.678;2024-02-23T08:30:56;96831.41;;;5.58;100.00
29903;BME280;30288;50.514;9.678;2024-02-23T08:33:02;96824.53;;;5.63;100.00
29903;BME280;30288;50.514;9.678;2024-02-23T08:35:11;96826.16;;;5.64;100.00
29903;BME280;30288;50.514;9.678;2024-02-23T08:37:18;96827.09;;;5.61;100.00
29903;BME280;30288;50.514;9.678;2024-02-23T08:39:23;96831.97;;;5.64;100.00
29903;BME280;30288;50.514;9.678;2024-02-23T08:41:28;96833.47;;;5.68;100.00
29903;BME280;30288;50.514;9.678;2024-02-23T08:43:38;96819.41;;;5.66;100.00
29903;BME280;30288;50.514;9.678;2024-02-23T08:45:44;96830.81;;;5.73;100.00
29903;BME280;30288;50.514;9.678;2024-02-23T08:47:51;96832.06;;;5.83;100.00
29903;BME280;30288;50.514;9.678;2024-02-23T08:49:56;96829.97;;;5.94;100.00
29903;BME280;30288;50.514;9.678;2024-02-23T08:52:06;96829.97;;;6.14;100.00
29903;BME280;30288;50.514;9.678;2024-02-23T08:54:09;96818.75;;;6.25;100.00
29903;BME280;30288;50.514;9.678;2024-02-23T08:56:14;96833.75;;;6.25;100.00
29903;BME280;30288;50.514;9.678;2024-02-23T08:58:24;96826.00;;;6.31;100.00
29903;BME280;30288;50.514;9.678;2024-02-23T09:00:29;96827.25;;;6.21;100.00
29903;BME280;30288;50.514;9.678;2024-02-23T09:02:34;96812.81;;;6.27;100.00
29903;BME280;30288;50.514;9.678;2024-02-23T09:04:40;96815.16;;;6.50;100.00
29903;BME280;30288;50.514;9.678;2024-02-23T09:06:47;96812.34;;;6.77;100.00
29903;BME280;30288;50.514;9.678;2024-02-23T09:08:58;96819.50;;;6.84;100.00
29903;BME280;30288;50.514;9.678;2024-02-23T09:11:03;96804.22;;;6.90;100.00
29903;BME280;30288;50.514;9.678;2024-02-23T09:13:10;96816.94;;;7.04;100.00
29903;BME280;30288;50.514;9.678;2024-02-23T09:15:17;96809.38;;;7.06;100.00
29903;BME280;30288;50.514;9.678;2024-02-23T09:17:23;96805.66;;;7.32;100.00
29903;BME280;30288;50.514;9.678;2024-02-23T09:19:29;96814.53;;;7.39;100.00
29903;BME280;30288;50.514;9.678;2024-02-23T09:21:35;96811.59;;;7.31;100.00
29903;BME280;30288;50.514;9.678;2024-02-23T09:23:40;96818.78;;;7.37;100.00
29903;BME280;30288;50.514;9.678;2024-02-23T09:25:48;96833.56;;;7.24;100.00
29903;BME280;30288;50.514;9.678;2024-02-23T09:27:57;96816.41;;;7.17;100.00
29903;BME280;30288;50.514;9.678;2024-02-23T09:29:59;96824.94;;;7.13;100.00
29903;BME280;30288;50.514;9.678;2024-02-23T09:32:07;96840.34;;;7.03;100.00
29903;BME280;30288;50.514;9.678;2024-02-23T09:34:12;96830.88;;;6.91;100.00
29903;BME280;30288;50.514;9.678;2024-02-23T09:36:18;96827.50;;;6.92;100.00
29903;BME280;30288;50.514;9.678;2024-02-23T09:38:26;96829.50;;;6.84;100.00
29903;BME280;30288;50.514;9.678;2024-02-23T09:40:34;96834.13;;;6.93;100.00
29903;BME280;30288;50.514;9.678;2024-02-23T09:42:42;96845.53;;;6.80;100.00
29903;BME280;30288;50.514;9.678;2024-02-23T09:44:51;96828.31;;;6.74;100.00
29903;BME280;30288;50.514;9.678;2024-02-23T09:47:03;96826.53;;;6.76;100.00
29903;BME280;30288;50.514;9.678;2024-02-23T09:49:11;96823.91;;;6.79;100.00
29903;BME280;30288;50.514;9.678;2024-02-23T09:51:17;96834.25;;;6.90;100.00
29903;BME280;30288;50.514;9.678;2024-02-23T09:53:20;96829.38;;;6.87;100.00
29903;BME280;30288;50.514;9.678;2024-02-23T09:55:27;96823.72;;;6.84;100.00
29903;BME280;30288;50.514;9.678;2024-02-23T09:57:34;96841.28;;;7.01;100.00
29903;BME280;30288;50.514;9.678;2024-02-23T09:59:43;96838.84;;;6.99;100.00
29903;BME280;30288;50.514;9.678;2024-02-23T10:01:49;96840.06;;;7.10;100.00
29903;BME280;30288;50.514;9.678;2024-02-23T10:03:57;96846.25;;;7.02;100.00
29903;BME280;30288;50.514;9.678;2024-02-23T10:06:04;96840.88;;;6.91;100.00
29903;BME280;30288;50.514;9.678;2024-02-23T10:08:09;96850.03;;;7.11;100.00
29903;BME280;30288;50.514;9.678;2024-02-23T10:10:24;96838.31;;;7.12;100.00
29903;BME280;30288;50.514;9.678;2024-02-23T10:12:34;96851.72;;;7.11;100.00
29903;BME280;30288;50.514;9.678;2024-02-23T10:14:44;96837.97;;;7.19;100.00
29903;BME280;30288;50.514;9.678;2024-02-23T10:16:49;96844.25;;;7.28;100.00
29903;BME280;30288;50.514;9.678;2024-02-23T10:18:59;96841.44;;;7.17;100.00
29903;BME280;30288;50.514;9.678;2024-02-23T10:21:05;96847.66;;;7.27;100.00
29903;BME280;30288;50.514;9.678;2024-02-23T10:23:11;96847.66;;;7.27;100.00
29903;BME280;30288;50.514;9.678;2024-02-23T10:25:17;96848.56;;;7.43;100.00
29903;BME280;30288;50.514;9.678;2024-02-23T10:27:23;96853.84;;;7.37;100.00
29903;BME280;30288;50.514;9.678;2024-02-23T10:29:29;96858.31;;;7.49;100.00
29903;BME280;30288;50.514;9.678;2024-02-23T10:31:38;96858.16;;;7.52;100.00
29903;BME280;30288;50.514;9.678;2024-02-23T10:33:45;96860.19;;;7.63;100.00
29903;BME280;30288;50.514;9.678;2024-02-23T10:35:56;96861.00;;;7.63;100.00
29903;BME280;30288;50.514;9.678;2024-02-23T10:38:00;96854.50;;;7.59;100.00
29903;BME280;30288;50.514;9.678;2024-02-23T10:40:09;96866.34;;;7.74;100.00
29903;BME280;30288;50.514;9.678;2024-02-23T10:42:18;96877.91;;;7.77;100.00
29903;BME280;30288;50.514;9.678;2024-02-23T10:44:28;96886.22;;;7.77;100.00
29903;BME280;30288;50.514;9.678;2024-02-23T10:46:32;96871.75;;;7.65;100.00
29903;BME280;30288;50.514;9.678;2024-02-23T10:48:42;96874.13;;;7.68;100.00
29903;BME280;30288;50.514;9.678;2024-02-23T10:50:49;96872.91;;;7.58;100.00
29903;BME280;30288;50.514;9.678;2024-02-23T10:52:56;96882.28;;;7.36;100.00
29903;BME280;30288;50.514;9.678;2024-02-23T10:55:01;96882.09;;;7.22;100.00
29903;BME280;30288;50.514;9.678;2024-02-23T10:57:08;96879.19;;;7.31;100.00
29903;BME280;30288;50.514;9.678;2024-02-23T10:59:14;96877.97;;;7.21;100.00
29903;BME280;30288;50.514;9.678;2024-02-23T11:01:23;96888.38;;;7.30;100.00
29903;BME280;30288;50.514;9.678;2024-02-23T11:03:31;96881.47;;;7.35;100.00
29903;BME280;30288;50.514;9.678;2024-02-23T11:05:40;96878.88;;;7.37;100.00
29903;BME280;30288;50.514;9.678;2024-02-23T11:07:48;96877.28;;;7.36;100.00
29903;BME280;30288;50.514;9.678;2024-02-23T11:09:54;96875.91;;;7.29;100.00